Time;durP1;ratioP1;P1;durP2;ratioP2;P2;SDS_P1;SDS_P2;PMS_P1;PMS_P2;Temp;Humidity;BMP_temperature;BMP_pressure;BME280_temperature;BME280_humidity;BME280_pressure;Samples;Min_cycle;Max_cycle;Signal;HPM_P1;HPM_P2
2023/06/10 00:01:49;;;;;;;9.18;2.38;;;22.10;88.10;;;;;;5029333;28;20033;-72
2023/06/10 00:04:16;;;;;;;3.90;1.90;;;22.10;87.80;;;;;;5028223;28;20498;-71
2023/06/10 00:06:44;;;;;;;4.85;2.80;;;22.10;87.90;;;;;;5035649;28;20139;-72
2023/06/10 00:09:13;;;;;;;3.33;1.88;;;22.10;87.60;;;;;;5027966;28;20029;-71
2023/06/10 00:11:39;;;;;;;3.47;2.05;;;22.00;87.70;;;;;;5028723;28;20045;-72
2023/06/10 00:14:05;;;;;;;4.07;2.35;;;22.00;87.70;;;;;;5046935;28;20120;-73
2023/06/10 00:16:31;;;;;;;4.80;1.98;;;22.00;87.50;;;;;;5046967;28;20074;-72
2023/06/10 00:19:00;;;;;;;4.63;2.30;;;21.90;87.80;;;;;;5029256;28;20021;-73
2023/06/10 00:21:27;;;;;;;5.38;2.40;;;21.90;87.70;;;;;;5046747;28;20041;-73
2023/06/10 00:23:55;;;;;;;4.47;2.17;;;21.80;87.50;;;;;;5034028;28;20040;-71
2023/06/10 00:26:23;;;;;;;4.32;2.17;;;21.90;87.50;;;;;;5048556;28;20469;-71
2023/06/10 00:28:49;;;;;;;3.53;1.88;;;21.80;87.70;;;;;;5038909;28;20099;-74
2023/06/10 00:31:15;;;;;;;3.40;1.90;;;21.80;87.50;;;;;;5046109;28;20040;-72
2023/06/10 00:33:40;;;;;;;8.68;2.22;;;21.80;87.70;;;;;;5028903;28;20507;-73
2023/06/10 00:36:06;;;;;;;4.47;2.03;;;21.80;87.50;;;;;;5045801;28;20554;-75
2023/06/10 00:38:33;;;;;;;4.50;1.77;;;21.80;87.30;;;;;;5046757;28;20033;-73
2023/06/10 00:40:58;;;;;;;7.22;1.55;;;21.80;87.10;;;;;;5028807;28;20052;-73
2023/06/10 00:43:24;;;;;;;4.43;2.20;;;21.80;87.20;;;;;;5027802;28;20569;-72
2023/06/10 00:45:51;;;;;;;3.35;1.80;;;21.70;87.60;;;;;;5046541;28;20099;-71
2023/06/10 00:48:17;;;;;;;4.80;1.90;;;21.70;87.40;;;;;;5027708;28;20052;-72
2023/06/10 00:50:43;;;;;;;3.40;1.75;;;21.70;87.40;;;;;;5031344;28;20091;-72
2023/06/10 00:53:10;;;;;;;3.88;1.98;;;21.70;87.30;;;;;;5031339;28;20247;-72
2023/06/10 00:55:36;;;;;;;6.20;1.77;;;21.60;87.30;;;;;;5050541;28;20112;-72
2023/06/10 00:58:03;;;;;;;7.50;1.90;;;21.60;87.50;;;;;;5032422;28;20123;-71
2023/06/10 01:00:29;;;;;;;6.90;1.95;;;21.50;87.30;;;;;;5031748;28;20032;-72
2023/06/10 01:02:55;;;;;;;4.75;1.95;;;21.50;87.20;;;;;;5032331;28;20033;-72
2023/06/10 01:05:21;;;;;;;3.85;2.05;;;21.50;87.30;;;;;;5031306;28;20208;-72
2023/06/10 01:07:53;;;;;;;5.50;2.47;;;21.40;87.30;;;;;;5032383;28;20505;-74
2023/06/10 01:10:27;;;;;;;4.88;2.03;;;21.40;87.20;;;;;;5044342;28;20040;-73
2023/06/10 01:12:59;;;;;;;3.90;1.75;;;21.30;87.20;;;;;;5031969;28;20036;-73
2023/06/10 01:15:25;;;;;;;11.52;2.85;;;21.30;86.80;;;;;;5031024;28;20039;-73
2023/06/10 01:17:59;;;;;;;4.78;1.85;;;21.40;86.20;;;;;;5032928;28;20409;-72
2023/06/10 01:20:29;;;;;;;3.25;1.70;;;21.40;86.20;;;;;;5046347;28;20029;-72
2023/06/10 01:22:56;;;;;;;5.35;2.30;;;21.40;85.70;;;;;;5060665;28;20040;-72
2023/06/10 01:25:28;;;;;;;9.50;2.30;;;21.30;85.40;;;;;;5031280;28;20070;-73
2023/06/10 01:28:38;;;;;;;7.28;1.92;;;21.30;85.50;;;;;;5032134;28;20032;-73
2023/06/10 01:31:21;;;;;;;7.97;1.90;;;21.20;85.60;;;;;;5016232;28;20482;-72
2023/06/10 01:33:51;;;;;;;7.72;2.30;;;21.20;85.20;;;;;;5024014;28;20129;-73
2023/06/10 01:36:18;;;;;;;10.10;2.00;;;21.20;85.40;;;;;;5026884;28;20044;-73
2023/06/10 01:38:46;;;;;;;5.38;1.65;;;21.10;85.70;;;;;;5031415;28;20040;-72
2023/06/10 01:41:17;;;;;;;4.75;2.15;;;21.00;85.30;;;;;;5030046;28;20063;-72
2023/06/10 01:43:44;;;;;;;4.38;1.63;;;21.10;85.40;;;;;;5031710;28;20029;-72
2023/06/10 01:46:10;;;;;;;5.63;1.60;;;21.00;85.30;;;;;;5030437;28;20064;-72
2023/06/10 01:51:57;;;;;;;4.80;1.88;;;20.90;85.00;;;;;;5044774;28;20523;-74
2023/06/10 01:54:23;;;;;;;5.78;2.42;;;21.00;84.90;;;;;;5022056;28;20073;-72
2023/06/10 01:56:49;;;;;;;4.03;1.42;;;20.90;84.90;;;;;;5028921;28;20037;-74
2023/06/10 01:59:15;;;;;;;7.25;2.05;;;20.80;85.00;;;;;;5006259;28;20037;-72
2023/06/10 02:01:41;;;;;;;7.82;2.00;;;20.80;85.00;;;;;;5010771;28;20033;-72
2023/06/10 02:04:06;;;;;;;4.05;1.98;;;20.70;85.10;;;;;;5031533;28;20044;-73
2023/06/10 02:06:32;;;;;;;4.95;1.65;;;20.70;85.00;;;;;;5011561;28;20037;-71
2023/06/10 02:08:58;;;;;;;3.67;1.73;;;20.70;85.40;;;;;;5011049;28;20075;-73
2023/06/10 02:11:23;;;;;;;7.03;1.90;;;20.80;85.00;;;;;;5010616;28;20128;-74
2023/06/10 02:13:49;;;;;;;5.00;1.85;;;20.70;84.90;;;;;;5015237;28;20073;-73
2023/06/10 02:16:16;;;;;;;5.03;1.85;;;20.80;84.80;;;;;;5016173;28;20034;-72
2023/06/10 02:18:42;;;;;;;4.05;1.90;;;20.70;85.00;;;;;;5013045;28;20029;-74
2023/06/10 02:21:08;;;;;;;5.55;1.85;;;20.70;85.00;;;;;;5027570;28;20029;-72
2023/06/10 02:23:34;;;;;;;4.78;2.25;;;20.60;85.10;;;;;;5015472;28;20040;-72
2023/06/10 02:26:00;;;;;;;12.55;1.65;;;20.60;85.20;;;;;;5028696;28;20040;-72
2023/06/10 02:28:26;;;;;;;9.25;1.90;;;20.50;85.50;;;;;;5027246;28;20049;-70
2023/06/10 02:30:51;;;;;;;6.55;2.15;;;20.50;85.50;;;;;;5010696;28;20513;-73
2023/06/10 02:33:17;;;;;;;7.22;2.33;;;20.50;85.60;;;;;;5009782;28;20049;-71
2023/06/10 02:35:43;;;;;;;13.60;3.10;;;20.40;85.80;;;;;;5028563;28;20036;-72
2023/06/10 02:38:08;;;;;;;5.93;1.65;;;20.40;85.90;;;;;;5027342;28;20037;-73
2023/06/10 02:40:34;;;;;;;5.60;2.40;;;20.40;86.20;;;;;;5027859;28;20111;-73
2023/06/10 02:42:59;;;;;;;4.38;1.85;;;20.30;86.10;;;;;;5010520;28;20559;-72
2023/06/10 02:45:25;;;;;;;3.92;2.03;;;20.30;86.30;;;;;;5009560;28;20034;-72
2023/06/10 02:47:51;;;;;;;8.15;1.92;;;20.30;86.40;;;;;;5028586;28;20043;-72
2023/06/10 02:50:16;;;;;;;15.25;3.22;;;20.30;86.80;;;;;;5026996;28;20113;-73
2023/06/10 02:52:42;;;;;;;4.25;1.98;;;20.20;86.70;;;;;;5010557;28;20037;-73
2023/06/10 02:55:07;;;;;;;3.92;1.60;;;20.20;87.00;;;;;;5009280;28;20040;-73
2023/06/10 02:57:33;;;;;;;3.38;1.70;;;20.20;87.00;;;;;;5013312;28;20037;-72
2023/06/10 02:59:59;;;;;;;9.88;2.28;;;20.20;87.10;;;;;;5010211;28;20478;-73
2023/06/10 03:02:28;;;;;;;4.25;2.10;;;20.20;87.30;;;;;;5026875;28;20039;-72
2023/06/10 03:04:55;;;;;;;8.18;1.83;;;20.20;87.60;;;;;;5010626;28;20037;-72
2023/06/10 03:07:21;;;;;;;7.43;1.58;;;20.20;87.70;;;;;;5008846;28;20042;-72
2023/06/10 03:09:46;;;;;;;8.55;2.63;;;20.10;88.00;;;;;;5030823;28;20095;-70
2023/06/10 03:12:12;;;;;;;3.55;2.00;;;20.10;88.20;;;;;;5013492;28;20374;-72
2023/06/10 03:14:38;;;;;;;5.80;2.40;;;20.10;88.40;;;;;;5011178;28;20112;-72
2023/06/10 03:17:04;;;;;;;3.40;1.80;;;20.00;88.90;;;;;;5009739;28;20041;-75
2023/06/10 03:19:30;;;;;;;5.05;2.05;;;19.90;89.50;;;;;;5026952;28;20486;-72
2023/06/10 03:22:13;;;;;;;4.07;1.98;;;19.90;89.20;;;;;;5009998;28;20034;-71
2023/06/10 03:24:43;;;;;;;4.13;2.13;;;19.80;89.60;;;;;;5026839;28;20041;-71
2023/06/10 03:27:10;;;;;;;7.40;2.17;;;19.80;89.80;;;;;;5008793;28;20029;-71
2023/06/10 03:29:37;;;;;;;4.55;1.88;;;19.80;89.90;;;;;;5027210;28;20498;-72
2023/06/10 03:32:03;;;;;;;9.10;2.55;;;19.80;90.00;;;;;;5009774;28;20067;-72
2023/06/10 03:34:29;;;;;;;4.25;2.03;;;19.80;90.20;;;;;;5026629;28;20041;-71
2023/06/10 03:36:55;;;;;;;5.03;1.70;;;19.80;90.20;;;;;;5009661;28;20045;-71
2023/06/10 03:39:21;;;;;;;5.55;2.08;;;19.70;90.30;;;;;;5008149;28;20140;-72
2023/06/10 03:41:46;;;;;;;4.40;2.33;;;19.70;90.40;;;;;;5009760;28;20036;-74
2023/06/10 03:44:12;;;;;;;8.75;2.63;;;19.70;90.40;;;;;;5026360;28;20397;-74
2023/06/10 03:46:38;;;;;;;4.65;2.38;;;19.70;90.50;;;;;;5019237;28;20068;-72
2023/06/10 03:49:03;;;;;;;3.78;1.67;;;19.70;90.60;;;;;;5027097;28;20026;-72
2023/06/10 03:51:29;;;;;;;4.35;1.75;;;19.70;90.60;;;;;;5008350;28;20068;-71
2023/06/10 03:53:55;;;;;;;3.63;1.52;;;19.70;90.70;;;;;;5009748;28;20121;-72
2023/06/10 03:56:20;;;;;;;9.90;1.92;;;19.70;90.80;;;;;;5030435;28;20467;-71
2023/06/10 03:58:46;;;;;;;6.47;2.10;;;19.70;90.90;;;;;;5012332;28;20507;-72
2023/06/10 04:01:13;;;;;;;11.32;2.10;;;19.60;91.00;;;;;;5008922;28;20404;-72
2023/06/10 04:03:43;;;;;;;7.40;1.75;;;19.60;91.00;;;;;;5026202;28;20041;-71
2023/06/10 04:06:09;;;;;;;5.80;2.13;;;19.60;91.10;;;;;;5010626;28;20128;-71
2023/06/10 04:08:35;;;;;;;7.53;1.83;;;19.70;91.20;;;;;;5014426;28;20108;-71
2023/06/10 04:11:01;;;;;;;7.13;2.28;;;19.70;91.20;;;;;;5029736;28;20029;-72
2023/06/10 04:13:27;;;;;;;7.05;2.08;;;19.70;91.30;;;;;;5026655;28;20486;-73
2023/06/10 04:15:54;;;;;;;7.43;1.88;;;19.70;91.30;;;;;;5009426;28;20045;-73
2023/06/10 04:18:20;;;;;;;11.13;2.30;;;19.70;91.30;;;;;;5008739;28;20042;-71
2023/06/10 04:20:46;;;;;;;11.35;1.80;;;19.70;91.40;;;;;;5027181;28;20056;-73
2023/06/10 04:23:11;;;;;;;5.13;1.90;;;19.70;91.40;;;;;;5008603;28;20060;-73
2023/06/10 04:25:37;;;;;;;5.55;1.80;;;19.70;91.40;;;;;;5012255;28;20030;-73
2023/06/10 04:28:02;;;;;;;4.82;1.83;;;19.70;91.50;;;;;;5013383;28;20037;-73
2023/06/10 04:30:28;;;;;;;5.45;2.13;;;19.70;91.50;;;;;;5030073;28;20029;-72
2023/06/10 04:32:54;;;;;;;5.82;2.03;;;19.70;91.70;;;;;;5013338;28;20558;-72
2023/06/10 04:35:19;;;;;;;3.97;1.83;;;19.70;91.50;;;;;;5011878;28;20092;-72
2023/06/10 04:37:48;;;;;;;4.07;1.80;;;19.70;91.60;;;;;;5013111;28;20521;-71
2023/06/10 04:40:15;;;;;;;8.32;2.38;;;19.70;91.60;;;;;;5025503;28;20112;-72
2023/06/10 04:42:41;;;;;;;8.63;2.38;;;19.70;91.60;;;;;;5013054;28;20108;-71
2023/06/10 04:45:08;;;;;;;8.10;2.47;;;19.80;91.60;;;;;;5012077;28;20159;-74
2023/06/10 04:47:33;;;;;;;4.43;1.90;;;19.80;91.70;;;;;;5030683;28;20754;-72
2023/06/10 04:50:00;;;;;;;3.35;2.13;;;19.70;91.70;;;;;;5030471;28;20147;-73
2023/06/10 04:52:26;;;;;;;5.65;1.45;;;19.70;91.80;;;;;;5028414;28;20049;-71
2023/06/10 04:54:53;;;;;;;5.78;2.30;;;19.70;91.90;;;;;;5012771;28;20036;-71
2023/06/10 04:57:20;;;;;;;4.93;2.13;;;19.70;91.90;;;;;;5011911;28;20037;-74
2023/06/10 04:59:45;;;;;;;3.65;1.48;;;19.80;91.90;;;;;;5012409;28;20029;-73
2023/06/10 05:02:11;;;;;;;4.72;2.15;;;19.80;91.90;;;;;;5034333;28;20561;-74
2023/06/10 05:04:37;;;;;;;9.20;2.05;;;19.80;92.00;;;;;;5019183;28;20040;-71
2023/06/10 05:07:02;;;;;;;4.53;1.95;;;19.90;91.90;;;;;;5030763;28;20033;-72
2023/06/10 05:09:28;;;;;;;4.40;1.88;;;19.90;91.80;;;;;;5028921;28;20391;-72
2023/06/10 05:11:54;;;;;;;9.73;1.80;;;20.00;91.90;;;;;;5030565;28;20056;-73
2023/06/10 05:14:20;;;;;;;4.53;2.13;;;20.00;92.00;;;;;;5028767;28;20048;-72
2023/06/10 05:16:47;;;;;;;3.40;1.92;;;20.10;91.70;;;;;;5012480;28;20035;-71
2023/06/10 05:19:12;;;;;;;4.90;1.70;;;20.10;91.80;;;;;;5029026;28;20044;-71
2023/06/10 05:21:38;;;;;;;5.03;2.50;;;20.10;91.70;;;;;;5029828;28;20095;-72
2023/06/10 05:24:04;;;;;;;5.80;1.98;;;20.20;92.00;;;;;;5030268;28;20112;-72
2023/06/10 05:26:31;;;;;;;5.35;2.13;;;20.30;91.50;;;;;;5011532;28;20037;-72
2023/06/10 05:28:57;;;;;;;6.05;2.20;;;20.40;91.60;;;;;;5029407;28;20045;-72
2023/06/10 05:31:22;;;;;;;5.82;2.10;;;20.50;91.40;;;;;;5029331;28;20401;-72
2023/06/10 05:33:48;;;;;;;4.97;2.05;;;20.50;91.40;;;;;;5003889;28;20030;-72
2023/06/10 05:36:13;;;;;;;4.97;2.05;;;20.70;91.40;;;;;;5010446;28;20049;-72
2023/06/10 05:38:39;;;;;;;7.88;2.15;;;20.80;91.40;;;;;;5011924;28;20033;-72
2023/06/10 05:41:05;;;;;;;3.03;1.45;;;21.00;90.90;;;;;;5029675;28;20025;-73
2023/06/10 05:43:30;;;;;;;4.70;2.00;;;21.10;90.90;;;;;;5011434;28;20029;-72
2023/06/10 05:45:56;;;;;;;4.80;2.28;;;21.40;90.40;;;;;;5030619;28;20034;-72
2023/06/10 05:48:22;;;;;;;5.20;2.05;;;21.70;89.80;;;;;;5012284;28;20136;-72
2023/06/10 05:50:48;;;;;;;7.82;2.45;;;22.10;89.50;;;;;;5032232;28;20055;-73
2023/06/10 05:53:15;;;;;;;5.93;1.83;;;22.50;88.60;;;;;;5031872;28;20057;-72
2023/06/10 05:55:43;;;;;;;6.30;2.53;;;22.90;86.90;;;;;;5016529;28;20108;-72
2023/06/10 05:58:08;;;;;;;4.47;2.30;;;23.20;86.60;;;;;;5045373;28;20124;-71
2023/06/10 06:00:34;;;;;;;7.10;2.55;;;23.50;85.70;;;;;;5019792;28;20056;-72
2023/06/10 06:03:00;;;;;;;3.63;1.90;;;23.60;84.70;;;;;;5030845;28;20473;-73
2023/06/10 06:05:25;;;;;;;3.40;1.77;;;23.60;85.20;;;;;;5012480;28;20033;-72
2023/06/10 06:07:51;;;;;;;6.90;1.95;;;23.70;84.80;;;;;;5011515;28;20045;-72
2023/06/10 06:10:18;;;;;;;5.88;2.20;;;23.70;85.00;;;;;;5027949;28;20033;-71
2023/06/10 06:12:44;;;;;;;6.30;1.83;;;23.90;84.20;;;;;;5029232;28;20489;-72
2023/06/10 06:15:10;;;;;;;6.60;2.28;;;23.90;83.80;;;;;;5024164;28;20029;-72
2023/06/10 06:17:36;;;;;;;4.93;2.03;;;23.80;84.70;;;;;;5011408;28;20872;-73
2023/06/10 06:20:05;;;;;;;8.25;1.70;;;24.00;83.80;;;;;;5029142;28;20034;-72
2023/06/10 06:22:31;;;;;;;5.57;1.80;;;24.00;83.50;;;;;;5006663;28;20033;-73
2023/06/10 06:24:56;;;;;;;5.55;2.28;;;23.90;84.50;;;;;;5029145;28;20059;-73
2023/06/10 06:27:22;;;;;;;5.10;1.70;;;23.90;84.80;;;;;;5009932;28;20050;-72
2023/06/10 06:29:47;;;;;;;7.63;1.92;;;24.10;84.30;;;;;;5010326;28;20091;-71
2023/06/10 06:32:13;;;;;;;7.88;2.20;;;24.30;83.90;;;;;;5009821;28;20102;-71
2023/06/10 06:34:38;;;;;;;9.48;2.30;;;24.40;83.60;;;;;;5028581;28;20098;-73
2023/06/10 06:37:04;;;;;;;8.02;2.30;;;24.50;84.10;;;;;;5010946;28;20045;-72
2023/06/10 06:39:30;;;;;;;6.45;2.05;;;24.70;83.50;;;;;;5009788;28;20437;-72
2023/06/10 06:41:55;;;;;;;4.13;1.85;;;25.10;82.40;;;;;;5010514;28;20033;-72
2023/06/10 06:44:21;;;;;;;8.77;2.38;;;25.30;81.50;;;;;;5027714;28;20092;-71
2023/06/10 06:46:46;;;;;;;3.05;1.83;;;25.70;81.00;;;;;;5011164;28;20041;-72
2023/06/10 06:49:12;;;;;;;5.63;1.98;;;26.00;80.50;;;;;;5031615;28;20029;-71
2023/06/10 06:51:37;;;;;;;6.47;1.95;;;26.40;79.40;;;;;;5033059;28;20033;-73
2023/06/10 06:54:05;;;;;;;10.52;2.28;;;26.80;79.30;;;;;;5041841;28;20029;-71
2023/06/10 06:56:31;;;;;;;6.65;1.83;;;27.00;78.50;;;;;;5039759;28;20037;-72
2023/06/10 06:58:56;;;;;;;3.33;1.80;;;27.40;77.20;;;;;;5028709;28;20037;-73
2023/06/10 07:01:22;;;;;;;4.55;2.15;;;27.80;78.60;;;;;;5009654;28;20037;-73
2023/06/10 07:03:47;;;;;;;7.40;2.30;;;28.50;76.50;;;;;;5011481;28;20035;-73
2023/06/10 07:06:13;;;;;;;4.80;2.35;;;29.20;77.30;;;;;;5026751;28;20405;-73
2023/06/10 07:08:39;;;;;;;4.50;2.17;;;30.40;74.10;;;;;;5028053;28;20053;-73
2023/06/10 07:11:04;;;;;;;7.28;3.20;;;31.10;74.50;;;;;;5028168;28;20030;-73
2023/06/10 07:13:30;;;;;;;6.38;2.53;;;32.10;72.20;;;;;;5028007;28;20028;-73
2023/06/10 07:15:55;;;;;;;11.30;2.80;;;32.90;72.50;;;;;;5010226;28;20053;-73
2023/06/10 07:18:21;;;;;;;8.75;3.15;;;33.50;69.50;;;;;;5009030;28;20057;-72
2023/06/10 07:20:46;;;;;;;4.78;2.90;;;33.70;69.60;;;;;;5027514;28;20142;-72
2023/06/10 07:23:12;;;;;;;6.57;3.15;;;34.40;68.50;;;;;;5026083;28;20034;-73
2023/06/10 07:25:38;;;;;;;9.07;3.35;;;34.70;67.70;;;;;;5022393;28;20417;-72
2023/06/10 07:28:03;;;;;;;6.95;3.20;;;34.60;68.50;;;;;;5024669;28;20101;-72
2023/06/10 07:30:29;;;;;;;10.93;3.25;;;34.90;68.40;;;;;;5008809;28;20045;-72
2023/06/10 07:32:55;;;;;;;6.72;3.13;;;35.00;65.70;;;;;;5026852;28;20448;-73
2023/06/10 07:35:21;;;;;;;6.47;3.08;;;35.30;65.80;;;;;;5007852;28;20147;-74
2023/06/10 07:37:47;;;;;;;6.25;3.30;;;35.80;65.20;;;;;;5009265;28;20482;-73
2023/06/10 07:40:12;;;;;;;4.93;3.03;;;35.80;66.10;;;;;;5008147;28;20041;-73
2023/06/10 07:42:38;;;;;;;6.55;3.53;;;36.10;65.40;;;;;;5029058;28;20441;-73
2023/06/10 07:45:04;;;;;;;5.50;3.03;;;36.30;63.30;;;;;;5028458;28;20056;-73
2023/06/10 07:47:30;;;;;;;8.40;3.08;;;36.40;62.60;;;;;;5036322;28;20053;-73
2023/06/10 07:49:56;;;;;;;5.18;3.70;;;36.20;62.00;;;;;;5049335;28;20041;-73
2023/06/10 07:52:22;;;;;;;5.80;2.83;;;36.30;62.40;;;;;;5037578;28;20071;-73
2023/06/10 07:54:47;;;;;;;5.15;3.03;;;35.90;62.60;;;;;;5029206;28;20038;-73
2023/06/10 07:57:13;;;;;;;5.60;2.90;;;36.10;61.20;;;;;;5025723;28;20056;-73
2023/06/10 07:59:38;;;;;;;10.75;3.00;;;35.50;61.20;;;;;;5025792;28;20030;-72
2023/06/10 08:02:04;;;;;;;6.60;2.97;;;35.20;62.50;;;;;;5006396;28;20026;-73
2023/06/10 08:04:31;;;;;;;9.63;3.75;;;35.30;62.50;;;;;;5025748;28;20041;-73
2023/06/10 08:06:56;;;;;;;10.65;3.28;;;35.20;62.10;;;;;;5005713;28;20045;-73
2023/06/10 08:09:23;;;;;;;7.78;3.47;;;34.60;62.30;;;;;;5024519;28;20087;-73
2023/06/10 08:11:49;;;;;;;4.30;2.53;;;35.00;61.90;;;;;;5007875;28;20049;-73
2023/06/10 08:14:15;;;;;;;9.88;2.97;;;34.70;62.00;;;;;;5025618;28;20037;-73
2023/06/10 08:16:43;;;;;;;6.28;3.63;;;34.30;64.10;;;;;;5008493;28;20057;-73
2023/06/10 08:19:09;;;;;;;6.10;3.00;;;34.10;61.90;;;;;;5024786;28;20454;-74
2023/06/10 08:21:37;;;;;;;7.97;2.65;;;33.60;63.20;;;;;;5009134;28;20041;-73
2023/06/10 08:24:03;;;;;;;6.53;2.65;;;33.00;64.30;;;;;;5026551;28;20095;-73
2023/06/10 08:26:28;;;;;;;4.00;2.65;;;32.40;63.70;;;;;;5025517;28;20563;-72
2023/06/10 08:28:55;;;;;;;3.88;2.20;;;31.70;63.70;;;;;;5007952;28;20037;-73
2023/06/10 08:31:20;;;;;;;7.35;2.25;;;31.10;65.20;;;;;;5007537;28;20041;-73
2023/06/10 08:33:46;;;;;;;5.10;2.00;;;30.80;66.00;;;;;;5009143;28;20041;-73
2023/06/10 08:36:12;;;;;;;3.75;1.70;;;30.50;66.80;;;;;;5005835;28;20494;-74
2023/06/10 08:38:37;;;;;;;6.43;1.70;;;30.30;67.30;;;;;;5026855;28;20037;-73
2023/06/10 08:41:05;;;;;;;12.60;2.60;;;30.40;69.20;;;;;;5009528;28;20037;-73
2023/06/10 08:43:45;;;;;;;6.82;2.03;;;30.50;67.60;;;;;;5011204;28;20459;-73
2023/06/10 08:46:13;;;;;;;3.83;2.00;;;30.60;69.00;;;;;;5011542;28;20390;-73
2023/06/10 08:48:44;;;;;;;4.18;2.05;;;30.70;68.00;;;;;;5009048;28;20029;-73
2023/06/10 08:51:11;;;;;;;4.05;1.70;;;30.50;67.80;;;;;;5026445;28;20536;-74
2023/06/10 08:53:41;;;;;;;6.40;2.50;;;30.50;67.50;;;;;;5026696;28;20029;-71
2023/06/10 08:56:07;;;;;;;7.32;1.67;;;30.30;68.00;;;;;;5027481;28;20045;-72
2023/06/10 08:58:35;;;;;;;9.07;2.15;;;30.40;69.20;;;;;;5008903;28;20091;-73
2023/06/10 09:01:01;;;;;;;3.75;1.60;;;30.30;69.90;;;;;;5027939;28;20057;-73
2023/06/10 09:03:27;;;;;;;3.20;1.52;;;30.50;68.40;;;;;;5026723;28;20026;-74
2023/06/10 09:05:55;;;;;;;4.57;2.08;;;30.50;69.40;;;;;;5021291;28;20029;-73
2023/06/10 09:08:20;;;;;;;5.03;2.20;;;30.60;67.90;;;;;;5004519;28;20438;-72
2023/06/10 09:10:47;;;;;;;7.30;2.60;;;30.60;69.30;;;;;;5008692;28;20496;-73
2023/06/10 09:13:15;;;;;;;5.20;2.38;;;30.60;69.20;;;;;;5011111;28;20115;-73
2023/06/10 09:15:41;;;;;;;5.75;2.05;;;30.60;69.10;;;;;;5030348;28;20065;-72
2023/06/10 09:18:07;;;;;;;6.57;2.00;;;30.80;67.50;;;;;;5029837;28;20512;-72
2023/06/10 09:20:33;;;;;;;5.00;2.30;;;30.80;67.00;;;;;;5011366;28;20049;-72
2023/06/10 09:23:00;;;;;;;5.40;2.20;;;30.80;66.20;;;;;;5030242;28;20553;-72
2023/06/10 09:25:36;;;;;;;5.68;2.13;;;30.70;67.70;;;;;;5019428;28;20404;-72
2023/06/10 09:28:03;;;;;;;4.53;1.85;;;30.80;68.30;;;;;;5029963;28;20108;-73
2023/06/10 09:30:34;;;;;;;7.05;2.50;;;30.90;68.10;;;;;;5026309;28;20045;-72
2023/06/10 09:33:02;;;;;;;6.20;2.00;;;31.00;66.40;;;;;;5030012;28;20030;-73
2023/06/10 09:35:30;;;;;;;9.48;1.92;;;30.90;66.10;;;;;;5009524;28;20042;-73
2023/06/10 09:37:57;;;;;;;4.65;1.88;;;30.80;66.20;;;;;;5035791;28;20129;-73
2023/06/10 09:40:24;;;;;;;3.33;1.98;;;30.70;67.00;;;;;;5030679;28;20040;-73
2023/06/10 09:42:57;;;;;;;4.97;2.08;;;30.90;67.20;;;;;;5011584;28;20056;-73
2023/06/10 09:45:23;;;;;;;2.50;1.65;;;30.90;67.30;;;;;;5027231;28;20056;-73
2023/06/10 09:47:53;;;;;;;4.25;1.40;;;31.00;66.10;;;;;;5011108;28;20025;-72
2023/06/10 09:50:19;;;;;;;4.85;1.98;;;31.00;67.30;;;;;;5024553;28;20454;-72
2023/06/10 09:52:47;;;;;;;4.60;1.65;;;31.10;66.40;;;;;;5028679;28;20041;-73
2023/06/10 09:55:12;;;;;;;3.63;1.83;;;31.10;65.30;;;;;;5028169;28;20045;-73
2023/06/10 09:57:41;;;;;;;7.18;2.10;;;31.10;65.30;;;;;;5034019;28;20549;-73
2023/06/10 10:00:10;;;;;;;3.15;1.90;;;31.10;65.30;;;;;;5022540;28;20141;-74
2023/06/10 10:02:47;;;;;;;;;;;31.10;66.00;;;;;;5029458;28;20125;-72
2023/06/10 10:05:14;;;;;;;6.15;2.05;;;31.00;65.70;;;;;;5027529;28;20361;-72
2023/06/10 10:07:40;;;;;;;7.25;2.17;;;31.10;65.00;;;;;;5028327;28;20041;-72
2023/06/10 10:10:07;;;;;;;5.13;2.30;;;31.00;65.40;;;;;;5028733;28;20096;-72
2023/06/10 10:12:35;;;;;;;4.90;2.17;;;31.10;65.00;;;;;;5024375;28;20033;-72
2023/06/10 10:15:02;;;;;;;11.65;2.45;;;31.20;65.10;;;;;;5012686;28;20076;-72
2023/06/10 10:17:29;;;;;;;4.97;1.90;;;31.20;64.90;;;;;;5027559;28;20045;-72
2023/06/10 10:19:59;;;;;;;5.05;1.90;;;31.20;65.60;;;;;;5027782;28;20022;-72
2023/06/10 10:22:29;;;;;;;6.90;2.47;;;31.30;64.90;;;;;;5026879;28;20437;-72
2023/06/10 10:24:57;;;;;;;4.32;2.13;;;31.30;64.30;;;;;;5018074;28;20035;-72
2023/06/10 10:27:35;;;;;;;6.47;1.42;;;31.30;64.30;;;;;;5008568;28;20805;-72
2023/06/10 10:30:08;;;;;;;3.92;1.80;;;31.20;63.40;;;;;;5025905;28;20033;-71
2023/06/10 10:32:49;;;;;;;3.00;1.50;;;31.10;62.30;;;;;;5027863;28;20030;-72
2023/06/10 10:35:18;;;;;;;2.20;1.48;;;31.30;62.50;;;;;;5026960;28;20348;-72
2023/06/10 10:37:45;;;;;;;2.25;1.60;;;31.10;62.50;;;;;;5010413;28;20037;-72
2023/06/10 10:40:11;;;;;;;4.82;1.73;;;31.30;63.10;;;;;;5023652;28;20061;-73
2023/06/10 10:42:38;;;;;;;4.57;1.70;;;31.40;61.70;;;;;;5008470;28;20130;-72
2023/06/10 10:45:05;;;;;;;3.20;1.75;;;31.30;61.80;;;;;;5028115;28;20509;-72
2023/06/10 10:47:32;;;;;;;5.95;1.88;;;31.30;62.80;;;;;;5006243;28;20446;-71
2023/06/10 10:49:59;;;;;;;4.20;1.63;;;31.40;62.90;;;;;;5025638;28;20055;-73
2023/06/10 10:52:26;;;;;;;5.10;1.70;;;31.50;62.40;;;;;;5025405;28;20030;-73
2023/06/10 10:54:53;;;;;;;4.38;1.52;;;31.60;62.20;;;;;;5008417;28;20026;-74
2023/06/10 10:57:23;;;;;;;6.22;2.15;;;31.60;61.60;;;;;;5008930;28;20791;-73
2023/06/10 10:59:49;;;;;;;4.72;1.33;;;31.40;61.50;;;;;;5007707;28;20033;-72
2023/06/10 11:02:33;;;;;;;3.25;1.58;;;31.50;61.70;;;;;;5025639;28;20033;-73
2023/06/10 11:05:00;;;;;;;8.57;1.85;;;31.40;61.20;;;;;;5008498;28;20061;-73
2023/06/10 11:07:25;;;;;;;4.30;2.03;;;31.20;61.70;;;;;;5027903;28;20038;-73
2023/06/10 11:10:01;;;;;;;4.93;2.40;;;31.10;62.40;;;;;;5024746;28;20116;-73
2023/06/10 11:12:41;;;;;;;4.15;1.83;;;31.30;61.90;;;;;;5026235;28;22347;-73
2023/06/10 11:15:07;;;;;;;4.35;1.50;;;31.30;62.50;;;;;;5027415;28;20103;-72
2023/06/10 11:17:32;;;;;;;3.33;1.92;;;31.40;61.70;;;;;;5024697;28;20656;-73
2023/06/10 11:19:59;;;;;;;4.68;1.50;;;31.30;62.10;;;;;;5024307;28;20120;-73
2023/06/10 11:22:24;;;;;;;2.83;1.40;;;31.30;61.70;;;;;;5024075;28;20037;-73
2023/06/10 11:24:50;;;;;;;8.13;2.13;;;31.30;62.00;;;;;;5029059;28;20157;-72
2023/06/10 11:27:17;;;;;;;3.65;1.88;;;31.40;61.70;;;;;;5031409;28;20034;-72
2023/06/10 11:30:19;;;;;;;4.55;1.55;;;31.40;61.30;;;;;;5030705;28;20040;-73
2023/06/10 11:32:45;;;;;;;3.70;2.20;;;31.40;62.00;;;;;;4973748;28;20493;-72
2023/06/10 11:35:11;;;;;;;5.13;1.83;;;31.20;61.50;;;;;;5025098;28;20158;-73
2023/06/10 11:37:37;;;;;;;2.72;1.50;;;31.20;61.80;;;;;;5008064;28;20060;-72
2023/06/10 11:40:03;;;;;;;4.47;1.58;;;31.20;61.00;;;;;;5028189;28;20103;-71
2023/06/10 11:42:29;;;;;;;2.80;1.80;;;31.10;61.80;;;;;;5007415;28;20071;-72
2023/06/10 11:44:55;;;;;;;3.15;1.55;;;31.00;62.20;;;;;;5006948;28;20043;-73
2023/06/10 11:47:21;;;;;;;6.97;2.30;;;31.00;62.20;;;;;;5024517;28;20045;-72
2023/06/10 11:49:56;;;;;;;3.78;1.60;;;31.10;62.00;;;;;;5008801;28;20029;-71
2023/06/10 11:52:33;;;;;;;3.92;1.77;;;31.10;62.00;;;;;;5023390;28;20469;-72
2023/06/10 11:54:59;;;;;;;3.08;1.52;;;31.20;61.40;;;;;;5006801;28;20371;-72
2023/06/10 11:57:24;;;;;;;3.20;1.77;;;31.00;61.20;;;;;;5029316;28;20044;-71
2023/06/10 11:59:50;;;;;;;3.28;1.95;;;31.00;62.50;;;;;;5011064;28;20067;-72
2023/06/10 12:02:17;;;;;;;3.83;1.58;;;31.10;62.10;;;;;;5032224;28;20030;-74
2023/06/10 12:04:42;;;;;;;2.03;1.58;;;31.20;61.20;;;;;;5012078;28;20033;-73
2023/06/10 12:07:08;;;;;;;3.95;1.55;;;31.10;60.70;;;;;;5008766;28;20871;-72
2023/06/10 12:09:34;;;;;;;4.18;1.65;;;31.20;61.70;;;;;;5026157;28;20446;-72
2023/06/10 12:12:02;;;;;;;4.38;1.70;;;31.30;60.40;;;;;;5027488;28;20195;-72
2023/06/10 12:14:56;;;;;;;7.78;2.17;;;31.20;61.90;;;;;;5008738;28;20038;-73
2023/06/10 12:17:32;;;;;;;4.13;2.03;;;31.10;61.00;;;;;;5008119;28;20042;-72
2023/06/10 12:19:59;;;;;;;3.80;2.13;;;31.10;60.60;;;;;;5039627;28;20127;-72
2023/06/10 12:22:26;;;;;;;3.90;1.63;;;31.10;62.70;;;;;;5011518;28;20524;-72
2023/06/10 12:25:03;;;;;;;4.65;2.70;;;31.10;61.70;;;;;;5030330;28;20513;-72
2023/06/10 12:27:30;;;;;;;5.88;2.17;;;31.20;60.70;;;;;;5026076;28;20021;-73
2023/06/10 12:30:00;;;;;;;6.85;2.47;;;31.10;60.70;;;;;;5034441;28;20054;-71
2023/06/10 12:32:39;;;;;;;2.42;1.65;;;31.00;59.10;;;;;;5011555;28;20469;-72
2023/06/10 12:35:06;;;;;;;3.88;1.58;;;30.90;59.40;;;;;;5027367;28;20079;-72
2023/06/10 12:37:33;;;;;;;1.90;1.35;;;30.80;59.50;;;;;;5008099;28;20037;-72
2023/06/10 12:40:02;;;;;;;3.40;1.73;;;30.80;59.70;;;;;;5026965;28;20044;-71
2023/06/10 12:42:29;;;;;;;4.60;1.80;;;30.80;60.20;;;;;;5026062;28;20060;-72
2023/06/10 12:44:56;;;;;;;4.28;1.42;;;30.70;59.10;;;;;;5009493;28;20284;-73
2023/06/10 12:47:31;;;;;;;6.13;2.00;;;30.70;59.90;;;;;;5011764;28;20041;-74
2023/06/10 12:49:58;;;;;;;3.30;1.70;;;30.70;60.40;;;;;;5032913;28;20025;-73